createdAt,value
2019-02-24T00:01:20.305Z,23.20
2019-02-24T00:03:48.855Z,23.30
2019-02-24T00:06:17.404Z,23.30
2019-02-24T00:08:45.957Z,23.40
2019-02-24T00:11:14.531Z,23.40
2019-02-24T00:13:43.055Z,23.40
2019-02-24T00:16:11.521Z,23.40
2019-02-24T00:18:39.994Z,23.50
2019-02-24T00:21:08.544Z,23.50
2019-02-24T00:23:37.021Z,23.50
2019-02-24T00:26:07.031Z,23.50
2019-02-24T00:28:35.489Z,23.50
2019-02-24T00:31:04.057Z,23.50
2019-02-24T00:33:32.517Z,23.50
2019-02-24T00:36:01.001Z,23.50
2019-02-24T00:38:29.505Z,23.50
2019-02-24T00:40:58.031Z,23.50
2019-02-24T00:43:28.147Z,23.50
2019-02-24T00:45:56.598Z,23.50
2019-02-24T00:48:25.099Z,23.50
2019-02-24T00:50:53.557Z,23.50
2019-02-24T00:53:22.053Z,23.50
2019-02-24T00:55:50.668Z,23.60
2019-02-24T00:58:19.213Z,23.60
2019-02-24T01:00:47.671Z,23.60
2019-02-24T01:03:16.163Z,23.70
2019-02-24T01:05:44.713Z,23.70
2019-02-24T01:08:13.251Z,23.80
2019-02-24T01:10:41.719Z,23.80
2019-02-24T01:13:10.181Z,23.80
2019-02-24T01:15:38.718Z,23.90
2019-02-24T01:18:07.175Z,23.90
2019-02-24T01:20:35.826Z,24.00
2019-02-24T01:23:04.361Z,24.00
2019-02-24T01:25:32.839Z,24.00
2019-02-24T01:28:01.310Z,24.00
2019-02-24T01:30:29.787Z,24.10
2019-02-24T01:32:58.264Z,24.30
2019-02-24T01:35:26.753Z,24.30
2019-02-24T01:37:55.205Z,24.40
2019-02-24T01:40:23.693Z,24.50
2019-02-24T01:42:52.161Z,24.60
2019-02-24T01:45:20.705Z,24.60
2019-02-24T01:47:49.162Z,24.60
2019-02-24T01:50:17.637Z,24.60
2019-02-24T01:52:46.123Z,24.50
2019-02-24T01:55:14.662Z,24.50
2019-02-24T01:57:43.260Z,24.50
2019-02-24T02:00:11.814Z,24.60
2019-02-24T02:02:40.376Z,24.60
2019-02-24T02:05:09.046Z,24.60
2019-02-24T02:07:37.526Z,24.60
2019-02-24T02:10:06.611Z,24.70
2019-02-24T02:12:35.155Z,24.80
2019-02-24T02:15:03.792Z,24.70
2019-02-24T02:17:32.366Z,24.70
2019-02-24T02:20:00.828Z,24.60
2019-02-24T02:22:29.310Z,24.60
2019-02-24T02:24:57.762Z,24.60
2019-02-24T02:27:26.231Z,24.60
2019-02-24T02:29:54.689Z,24.70
2019-02-24T02:32:23.188Z,24.70
2019-02-24T02:34:51.802Z,24.80
2019-02-24T02:37:20.299Z,24.80
2019-02-24T02:39:48.762Z,24.90
2019-02-24T02:42:17.315Z,24.80
2019-02-24T02:44:45.897Z,24.90
2019-02-24T02:47:14.416Z,25.00
2019-02-24T02:49:42.904Z,25.00
2019-02-24T02:52:11.356Z,25.10
2019-02-24T02:54:39.880Z,25.20
2019-02-24T02:57:08.418Z,25.20
2019-02-24T02:59:36.975Z,25.30
2019-02-24T03:02:05.492Z,25.30
2019-02-24T03:04:33.987Z,25.30
2019-02-24T03:07:06.603Z,25.30
2019-02-24T03:09:35.144Z,25.40
2019-02-24T03:12:03.595Z,25.50
2019-02-24T03:14:32.074Z,25.40
2019-02-24T03:17:00.524Z,25.40
2019-02-24T03:19:29.014Z,25.50
2019-02-24T03:21:57.544Z,25.60
2019-02-24T03:24:26.061Z,25.60
2019-02-24T03:26:54.624Z,25.60
2019-02-24T03:29:23.181Z,25.60
2019-02-24T03:31:51.642Z,25.60
2019-02-24T03:34:20.116Z,25.60
2019-02-24T03:36:48.609Z,25.70
2019-02-24T03:39:17.108Z,25.70
2019-02-24T03:41:45.610Z,25.80
2019-02-24T03:44:14.144Z,25.80
2019-02-24T03:46:42.637Z,25.80
2019-02-24T03:49:11.097Z,25.80
2019-02-24T03:51:39.568Z,25.90
2019-02-24T03:54:08.030Z,25.90
2019-02-24T03:56:36.565Z,25.90
2019-02-24T03:59:14.683Z,26.00
2019-02-24T04:01:35.426Z,26.00
2019-02-24T04:04:03.962Z,26.00
2019-02-24T04:06:32.440Z,26.00
2019-02-24T04:09:00.915Z,26.10
2019-02-24T04:11:29.376Z,26.10
2019-02-24T04:13:57.845Z,26.10
2019-02-24T04:16:26.335Z,26.10
2019-02-24T04:18:54.903Z,26.10
2019-02-24T04:21:23.437Z,26.10
2019-02-24T04:23:51.984Z,26.10
2019-02-24T04:26:20.453Z,26.00
2019-02-24T04:28:48.938Z,26.10
2019-02-24T04:31:18.687Z,26.10
2019-02-24T04:33:47.186Z,26.20
2019-02-24T04:36:15.719Z,26.20
2019-02-24T04:38:44.201Z,26.20
2019-02-24T04:41:12.673Z,26.20
2019-02-24T04:43:41.222Z,26.20
2019-02-24T04:46:09.726Z,26.30
2019-02-24T04:48:38.273Z,26.60
2019-02-24T04:51:06.842Z,26.30
2019-02-24T04:53:35.365Z,26.40
2019-02-24T04:56:03.853Z,26.30
2019-02-24T04:58:32.365Z,26.70
2019-02-24T05:01:00.860Z,26.40
2019-02-24T05:03:29.412Z,26.40
2019-02-24T05:05:57.967Z,26.50
2019-02-24T05:08:26.428Z,26.50
2019-02-24T05:10:55.073Z,26.50
2019-02-24T05:13:23.642Z,26.50
2019-02-24T05:15:52.199Z,26.50
2019-02-24T05:18:20.681Z,26.40
2019-02-24T05:20:49.256Z,26.30
2019-02-24T05:23:17.825Z,26.30
2019-02-24T05:25:46.367Z,26.20
2019-02-24T05:28:14.939Z,26.20
2019-02-24T05:30:43.517Z,26.20
2019-02-24T05:33:12.096Z,26.20
2019-02-24T05:35:40.632Z,26.20
2019-02-24T05:38:09.149Z,26.20
2019-02-24T05:40:37.720Z,26.20
2019-02-24T05:43:06.298Z,26.30
2019-02-24T05:45:34.846Z,26.30
2019-02-24T05:48:03.408Z,26.40
2019-02-24T05:50:32.232Z,26.40
2019-02-24T05:53:00.787Z,26.50
2019-02-24T05:55:29.257Z,26.50
2019-02-24T05:57:57.869Z,26.60
2019-02-24T06:00:26.366Z,26.70
2019-02-24T06:02:54.925Z,26.80
2019-02-24T06:05:23.393Z,26.80
2019-02-24T06:07:51.961Z,26.80
2019-02-24T06:10:20.583Z,26.80
2019-02-24T06:12:49.055Z,26.80
2019-02-24T06:15:17.602Z,26.70
2019-02-24T06:17:46.083Z,26.80
2019-02-24T06:20:14.652Z,26.70
2019-02-24T06:22:43.126Z,26.70
2019-02-24T06:25:11.679Z,26.70
2019-02-24T06:27:40.157Z,26.70
2019-02-24T06:30:09.194Z,26.70
2019-02-24T06:32:37.671Z,26.80
2019-02-24T06:35:07.766Z,26.80
2019-02-24T06:37:36.301Z,26.80
2019-02-24T06:40:06.405Z,26.90
2019-02-24T06:42:34.865Z,26.90
2019-02-24T06:45:03.608Z,27.00
2019-02-24T06:47:32.097Z,27.10
2019-02-24T06:50:00.569Z,27.10
2019-02-24T06:52:29.080Z,27.20
2019-02-24T06:54:57.622Z,27.20
2019-02-24T06:57:26.187Z,27.20
2019-02-24T06:59:54.649Z,27.30
2019-02-24T07:02:23.156Z,27.20
2019-02-24T07:04:51.682Z,27.20
2019-02-24T07:07:20.160Z,27.20
2019-02-24T07:09:48.614Z,27.10
2019-02-24T07:12:17.094Z,27.10
2019-02-24T07:14:45.632Z,27.10
2019-02-24T07:17:14.185Z,27.10
2019-02-24T07:19:42.664Z,27.10
2019-02-24T07:22:11.132Z,27.00
2019-02-24T07:24:39.675Z,27.00
2019-02-24T07:27:08.251Z,27.00
2019-02-24T07:29:36.715Z,27.00
2019-02-24T07:32:05.198Z,27.00
2019-02-24T07:34:33.696Z,27.00
2019-02-24T07:37:02.254Z,27.00
2019-02-24T07:39:30.796Z,26.90
2019-02-24T07:41:59.342Z,26.80
2019-02-24T07:44:27.899Z,26.80
2019-02-24T07:46:56.379Z,26.70
2019-02-24T07:49:24.946Z,26.60
2019-02-24T07:51:53.464Z,26.50
2019-02-24T07:54:21.972Z,26.50
2019-02-24T07:56:50.454Z,26.40
2019-02-24T07:59:19.014Z,26.20
2019-02-24T08:01:47.537Z,26.20
2019-02-24T08:04:16.038Z,26.20
2019-02-24T08:06:44.508Z,26.20
2019-02-24T08:09:12.978Z,26.30
2019-02-24T08:11:41.464Z,26.20
2019-02-24T08:14:10.017Z,26.30
2019-02-24T08:16:38.464Z,26.20
2019-02-24T08:19:06.982Z,26.10
2019-02-24T08:21:35.520Z,26.00
2019-02-24T08:24:04.098Z,26.00
2019-02-24T08:26:32.560Z,26.00
2019-02-24T08:29:01.013Z,26.00
2019-02-24T08:31:29.507Z,26.10
2019-02-24T08:33:57.991Z,26.10
2019-02-24T08:36:28.123Z,26.20
2019-02-24T08:38:56.594Z,26.10
2019-02-24T08:41:25.085Z,26.20
2019-02-24T08:43:53.541Z,26.10
2019-02-24T08:46:22.058Z,26.10
2019-02-24T08:48:50.577Z,26.10
2019-02-24T08:51:19.352Z,26.00
2019-02-24T08:53:47.880Z,26.00
2019-02-24T08:56:16.524Z,25.90
2019-02-24T08:58:45.083Z,25.90
2019-02-24T09:01:13.643Z,25.80
2019-02-24T09:03:42.173Z,25.70
2019-02-24T09:06:10.753Z,25.60
2019-02-24T09:08:39.307Z,25.60
2019-02-24T09:11:07.890Z,25.60
2019-02-24T09:13:36.467Z,25.50
2019-02-24T09:16:05.015Z,25.40
2019-02-24T09:18:33.573Z,25.30
2019-02-24T09:21:02.082Z,25.20
2019-02-24T09:23:30.635Z,25.20
2019-02-24T09:25:59.106Z,25.10
2019-02-24T09:28:27.572Z,25.00
2019-02-24T09:31:00.909Z,24.90
2019-02-24T09:33:26.260Z,24.80
2019-02-24T09:35:56.445Z,24.80
2019-02-24T09:38:25.028Z,24.80
2019-02-24T09:40:53.550Z,24.70
2019-02-24T09:43:22.047Z,24.70
2019-02-24T09:45:50.513Z,24.60
2019-02-24T09:48:19.006Z,24.20
2019-02-24T09:50:47.503Z,24.10
2019-02-24T09:53:16.029Z,24.00
2019-02-24T09:55:44.508Z,24.00
2019-02-24T09:58:13.035Z,24.00
2019-02-24T10:00:41.611Z,23.90
2019-02-24T10:03:10.129Z,24.10
2019-02-24T10:05:39.122Z,23.80
2019-02-24T10:08:08.246Z,23.30
2019-02-24T10:10:36.752Z,23.20
2019-02-24T10:13:05.526Z,23.20
2019-02-24T10:15:34.035Z,23.30
2019-02-24T10:18:02.525Z,23.30
2019-02-24T10:20:31.154Z,23.50
2019-02-24T10:22:59.611Z,23.40
2019-02-24T10:25:28.125Z,23.30
2019-02-24T10:27:56.657Z,23.10
2019-02-24T10:30:25.233Z,23.20
2019-02-24T10:32:53.724Z,23.40
2019-02-24T10:35:22.318Z,23.60
2019-02-24T10:37:50.803Z,23.40
2019-02-24T10:40:19.318Z,23.30
2019-02-24T10:42:47.800Z,23.20
2019-02-24T10:45:17.568Z,23.20
2019-02-24T10:47:46.142Z,23.30
2019-02-24T10:50:16.555Z,23.20
2019-02-24T10:52:45.066Z,23.20
2019-02-24T10:55:13.674Z,23.30
2019-02-24T10:57:42.310Z,23.30
2019-02-24T11:00:15.656Z,23.20
2019-02-24T11:02:44.222Z,23.20
2019-02-24T11:05:12.915Z,23.10
2019-02-24T11:07:41.444Z,23.10
2019-02-24T11:10:10.322Z,23.00
2019-02-24T11:12:38.856Z,22.90
2019-02-24T11:15:10.516Z,22.70
2019-02-24T11:17:39.163Z,22.70
2019-02-24T11:20:15.943Z,22.70
2019-02-24T11:22:44.483Z,22.50
2019-02-24T11:25:13.226Z,22.60
2019-02-24T11:27:41.817Z,22.60
2019-02-24T11:30:12.041Z,22.40
2019-02-24T11:32:40.657Z,22.40
2019-02-24T11:35:11.147Z,22.40
2019-02-24T11:37:39.772Z,22.50
2019-02-24T11:40:10.770Z,22.50
2019-02-24T11:42:39.243Z,22.30
2019-02-24T11:45:09.444Z,22.00
2019-02-24T11:47:37.892Z,21.50
2019-02-24T11:50:08.918Z,21.30
2019-02-24T11:52:37.461Z,21.20
2019-02-24T11:55:07.400Z,21.30
2019-02-24T11:57:35.872Z,21.40
2019-02-24T12:00:09.160Z,21.40
2019-02-24T12:02:37.744Z,21.40
2019-02-24T12:05:07.805Z,21.20
2019-02-24T12:07:36.309Z,21.10
2019-02-24T12:10:07.533Z,21.30
2019-02-24T12:12:36.096Z,21.20
2019-02-24T12:15:07.290Z,21.00
2019-02-24T12:17:35.850Z,20.80
2019-02-24T12:20:06.158Z,20.90
2019-02-24T12:22:34.652Z,20.80
2019-02-24T12:25:03.667Z,20.70
2019-02-24T12:27:32.244Z,20.50
2019-02-24T12:30:00.725Z,20.40
2019-02-24T12:32:29.224Z,19.80
2019-02-24T12:34:57.768Z,19.70
2019-02-24T12:37:26.258Z,19.60
2019-02-24T12:39:54.706Z,19.40
2019-02-24T12:42:23.174Z,19.70
2019-02-24T12:44:51.726Z,19.70
2019-02-24T12:47:20.186Z,19.60
2019-02-24T12:49:48.681Z,19.50
2019-02-24T12:52:17.210Z,19.50
2019-02-24T12:54:45.732Z,19.60
2019-02-24T12:57:14.259Z,19.40
2019-02-24T12:59:44.399Z,19.40
2019-02-24T13:02:13.205Z,19.30
2019-02-24T13:04:41.675Z,19.10
2019-02-24T13:07:10.139Z,18.80
2019-02-24T13:09:38.700Z,18.60
2019-02-24T13:12:07.224Z,18.70
2019-02-24T13:14:35.699Z,18.80
2019-02-24T13:17:04.328Z,18.90
2019-02-24T13:19:32.885Z,19.00
2019-02-24T13:22:01.333Z,18.60
2019-02-24T13:24:29.823Z,18.70
2019-02-24T13:26:58.266Z,19.00
2019-02-24T13:29:26.913Z,18.60
2019-02-24T13:31:55.497Z,18.70
2019-02-24T13:34:24.047Z,18.70
2019-02-24T13:36:52.601Z,18.70
2019-02-24T13:39:21.065Z,18.90
2019-02-24T13:41:49.557Z,19.10
2019-02-24T13:44:18.088Z,19.30
2019-02-24T13:46:46.582Z,19.00
2019-02-24T13:49:15.122Z,19.00
2019-02-24T13:51:43.717Z,18.60
2019-02-24T13:54:12.243Z,18.50
2019-02-24T13:56:40.725Z,18.60
2019-02-24T13:59:09.211Z,18.90
2019-02-24T14:01:37.685Z,19.00
2019-02-24T14:04:06.181Z,19.10
2019-02-24T14:06:34.707Z,19.00
2019-02-24T14:09:03.210Z,19.00
2019-02-24T14:11:31.739Z,19.10
2019-02-24T14:14:00.230Z,18.60
2019-02-24T14:16:28.681Z,18.90
2019-02-24T14:18:57.162Z,19.40
2019-02-24T14:21:25.626Z,19.50
2019-02-24T14:23:54.177Z,19.50
2019-02-24T14:26:22.646Z,19.30
2019-02-24T14:28:51.146Z,18.70
2019-02-24T14:31:19.697Z,18.10
2019-02-24T14:33:48.260Z,17.90
2019-02-24T14:36:16.815Z,18.00
2019-02-24T14:38:45.302Z,18.10
2019-02-24T14:41:13.899Z,18.50
2019-02-24T14:43:42.485Z,18.80
2019-02-24T14:46:11.074Z,18.70
2019-02-24T14:48:39.640Z,18.70
2019-02-24T14:51:08.245Z,18.50
2019-02-24T14:53:36.815Z,18.40
2019-02-24T14:56:05.481Z,17.70
2019-02-24T14:58:34.013Z,17.80
2019-02-24T15:01:05.176Z,17.70
2019-02-24T15:03:33.655Z,17.60
2019-02-24T15:06:02.237Z,17.20
2019-02-24T15:08:30.778Z,16.90
2019-02-24T15:10:59.291Z,16.90
2019-02-24T15:13:27.858Z,16.80
2019-02-24T15:15:56.481Z,16.60
2019-02-24T15:18:24.933Z,16.40
2019-02-24T15:20:53.485Z,15.90
2019-02-24T15:23:22.029Z,15.50
2019-02-24T15:25:50.671Z,15.40
2019-02-24T15:28:19.202Z,15.50
2019-02-24T15:30:47.683Z,15.00
2019-02-24T15:33:16.199Z,15.30
2019-02-24T15:35:44.816Z,15.20
2019-02-24T15:38:13.448Z,15.10
2019-02-24T15:40:41.994Z,14.90
2019-02-24T15:43:10.502Z,15.10
2019-02-24T15:45:39.003Z,14.90
2019-02-24T15:48:07.636Z,14.70
2019-02-24T15:50:36.172Z,14.60
2019-02-24T15:53:04.668Z,14.40
2019-02-24T15:55:33.169Z,14.30
2019-02-24T15:58:01.720Z,14.30
2019-02-24T16:00:30.201Z,14.10
2019-02-24T16:03:01.866Z,14.20
2019-02-24T16:05:28.965Z,14.30
2019-02-24T16:07:57.552Z,14.30
2019-02-24T16:10:26.085Z,14.30
2019-02-24T16:12:54.598Z,14.40
2019-02-24T16:15:27.878Z,14.40
2019-02-24T16:17:56.401Z,14.30
2019-02-24T16:20:32.537Z,14.50
2019-02-24T16:23:01.031Z,14.40
2019-02-24T16:25:29.505Z,14.50
2019-02-24T16:27:58.072Z,14.50
2019-02-24T16:30:26.646Z,14.70
2019-02-24T16:32:55.104Z,14.60
2019-02-24T16:35:23.617Z,14.60
2019-02-24T16:37:52.148Z,14.60
2019-02-24T16:40:26.111Z,14.60
2019-02-24T16:42:54.562Z,14.60
2019-02-24T16:45:23.204Z,14.70
2019-02-24T16:47:51.872Z,14.70
2019-02-24T16:50:26.399Z,14.90
2019-02-24T16:52:54.884Z,15.00
2019-02-24T16:55:23.598Z,15.30
2019-02-24T16:57:52.087Z,15.50
2019-02-24T17:00:22.721Z,15.50
2019-02-24T17:02:51.276Z,15.70
2019-02-24T17:05:19.903Z,15.70
2019-02-24T17:07:49.296Z,15.60
2019-02-24T17:10:19.797Z,15.60
2019-02-24T17:12:48.298Z,15.70
2019-02-24T17:15:16.839Z,15.70
2019-02-24T17:17:45.387Z,15.70
2019-02-24T17:20:21.361Z,15.70
2019-02-24T17:22:49.930Z,15.90
2019-02-24T17:25:18.485Z,16.10
2019-02-24T17:27:47.113Z,16.30
2019-02-24T17:30:16.405Z,16.40
2019-02-24T17:32:44.959Z,16.50
2019-02-24T17:35:13.565Z,16.70
2019-02-24T17:37:42.132Z,16.90
2019-02-24T17:40:21.009Z,17.10
2019-02-24T17:42:49.576Z,17.20
2019-02-24T17:45:18.124Z,17.50
2019-02-24T17:47:46.665Z,17.40
2019-02-24T17:50:16.591Z,17.50
2019-02-24T17:52:45.160Z,17.60
2019-02-24T17:55:18.589Z,17.70
2019-02-24T17:57:47.125Z,17.80
2019-02-24T18:00:25.403Z,17.90
2019-02-24T18:02:54.029Z,18.00
2019-02-24T18:05:22.502Z,18.00
2019-02-24T18:07:51.064Z,18.20
2019-02-24T18:10:19.648Z,18.40
2019-02-24T18:12:48.189Z,18.50
2019-02-24T18:15:16.828Z,18.60
2019-02-24T18:17:45.447Z,18.70
2019-02-24T18:20:18.617Z,18.90
2019-02-24T18:22:47.216Z,19.00
2019-02-24T18:25:15.795Z,19.10
2019-02-24T18:27:44.330Z,19.20
2019-02-24T18:30:21.874Z,19.30
2019-02-24T18:32:50.438Z,19.40
2019-02-24T18:35:18.996Z,19.60
2019-02-24T18:37:47.470Z,19.60
2019-02-24T18:40:16.494Z,19.70
2019-02-24T18:42:45.050Z,19.70
2019-02-24T18:45:14.929Z,19.90
2019-02-24T18:47:43.573Z,20.00
2019-02-24T18:50:16.630Z,20.10
2019-02-24T18:52:45.123Z,20.20
2019-02-24T18:55:13.955Z,20.30
2019-02-24T18:57:42.595Z,20.50
2019-02-24T19:00:19.534Z,20.60
2019-02-24T19:02:48.113Z,20.80
2019-02-24T19:05:16.649Z,20.70
2019-02-24T19:07:45.234Z,20.80
2019-02-24T19:10:15.853Z,21.00
2019-02-24T19:12:47.542Z,21.10
2019-02-24T19:15:17.812Z,21.10
2019-02-24T19:17:47.642Z,21.10
2019-02-24T19:20:17.838Z,21.10
2019-02-24T19:22:46.414Z,21.20
2019-02-24T19:25:15.054Z,21.10
2019-02-24T19:27:43.631Z,21.10
2019-02-24T19:30:14.313Z,21.10
2019-02-24T19:32:43.037Z,21.10
2019-02-24T19:35:15.656Z,21.10
2019-02-24T19:37:44.371Z,21.20
2019-02-24T19:40:15.017Z,21.20
2019-02-24T19:42:43.599Z,21.20
2019-02-24T19:45:14.734Z,21.70
2019-02-24T19:47:43.273Z,21.70
2019-02-24T19:50:16.104Z,21.80
2019-02-24T19:52:44.746Z,22.00
2019-02-24T19:55:14.668Z,22.10
2019-02-24T19:57:43.126Z,22.30
2019-02-24T20:00:22.408Z,22.50
2019-02-24T20:02:51.103Z,22.60
2019-02-24T20:05:20.422Z,22.60
2019-02-24T20:07:49.037Z,22.70
2019-02-24T20:10:24.535Z,22.90
2019-02-24T20:12:53.003Z,22.90
2019-02-24T20:15:21.748Z,23.00
2019-02-24T20:17:50.306Z,23.00
2019-02-24T20:20:19.224Z,23.10
2019-02-24T20:22:48.019Z,23.20
2019-02-24T20:25:20.885Z,23.20
2019-02-24T20:27:49.427Z,23.30
2019-02-24T20:30:23.933Z,23.30
2019-02-24T20:32:52.400Z,23.50
2019-02-24T20:35:20.980Z,23.40
2019-02-24T20:37:49.610Z,23.50
2019-02-24T20:40:18.253Z,23.50
2019-02-24T20:42:46.794Z,23.70
2019-02-24T20:45:24.607Z,23.60
2019-02-24T20:47:53.297Z,23.70
2019-02-24T20:50:29.103Z,23.50
2019-02-24T20:52:57.631Z,23.50
2019-02-24T20:55:26.230Z,23.50
2019-02-24T20:57:54.861Z,23.60
2019-02-24T21:00:35.389Z,23.50
2019-02-24T21:03:03.838Z,23.60
2019-02-24T21:05:32.332Z,23.90
2019-02-24T21:08:00.924Z,23.50
2019-02-24T21:10:29.526Z,23.60
2019-02-24T21:12:58.102Z,23.70
2019-02-24T21:15:26.559Z,23.80
2019-02-24T21:17:55.087Z,23.90
2019-02-24T21:20:26.698Z,24.00
2019-02-24T21:22:55.197Z,24.00
2019-02-24T21:25:23.723Z,24.00
2019-02-24T21:27:52.242Z,24.10
2019-02-24T21:30:22.026Z,24.20
2019-02-24T21:32:50.622Z,24.20
2019-02-24T21:35:19.226Z,24.30
2019-02-24T21:37:47.778Z,24.30
2019-02-24T21:40:19.691Z,24.40
2019-02-24T21:42:48.310Z,24.40
2019-02-24T21:45:27.556Z,24.50
2019-02-24T21:47:56.129Z,24.50
2019-02-24T21:50:24.729Z,24.50
2019-02-24T21:52:53.196Z,24.50
2019-02-24T21:55:21.694Z,24.70
2019-02-24T21:57:50.221Z,24.70
2019-02-24T22:00:23.672Z,24.80
2019-02-24T22:02:52.284Z,24.90
2019-02-24T22:05:20.968Z,25.00
2019-02-24T22:07:49.518Z,25.10
2019-02-24T22:10:18.242Z,25.20
2019-02-24T22:12:46.798Z,25.10
2019-02-24T22:15:17.803Z,25.20
2019-02-24T22:17:46.416Z,25.30
2019-02-24T22:20:15.657Z,25.40
2019-02-24T22:22:44.749Z,25.40
2019-02-24T22:25:14.431Z,25.40
2019-02-24T22:27:43.045Z,25.40
2019-02-24T22:30:19.618Z,25.40
2019-02-24T22:32:48.197Z,25.40
2019-02-24T22:35:16.690Z,25.50
2019-02-24T22:37:45.378Z,25.50
2019-02-24T22:40:16.717Z,25.60
2019-02-24T22:42:45.774Z,25.60
2019-02-24T22:45:16.897Z,25.70
2019-02-24T22:47:45.915Z,25.60
2019-02-24T22:50:14.978Z,25.60
2019-02-24T22:52:43.644Z,25.60
2019-02-24T22:55:14.025Z,25.60
2019-02-24T22:57:42.670Z,25.70
2019-02-24T23:00:16.737Z,25.70
2019-02-24T23:02:45.306Z,25.70
2019-02-24T23:05:13.970Z,25.70
2019-02-24T23:07:42.462Z,25.80
2019-02-24T23:10:11.248Z,25.80
2019-02-24T23:12:39.766Z,25.70
2019-02-24T23:15:08.432Z,25.70
2019-02-24T23:17:36.937Z,25.60
2019-02-24T23:20:07.624Z,25.60
2019-02-24T23:22:36.103Z,25.60
2019-02-24T23:25:08.236Z,25.50
2019-02-24T23:27:36.804Z,25.50
2019-02-24T23:30:07.825Z,25.50
2019-02-24T23:32:36.400Z,25.50
2019-02-24T23:35:06.684Z,25.60
2019-02-24T23:37:35.176Z,25.70
2019-02-24T23:40:05.968Z,25.90
2019-02-24T23:42:34.423Z,26.00
2019-02-24T23:45:09.813Z,26.00
2019-02-24T23:47:33.137Z,26.00
2019-02-24T23:50:01.609Z,26.10
2019-02-24T23:52:30.173Z,26.10
2019-02-24T23:54:58.669Z,26.00
2019-02-24T23:57:27.212Z,26.10
2019-02-24T23:59:55.711Z,26.00
